Time;durP1;ratioP1;P1;durP2;ratioP2;P2;SDS_P1;SDS_P2;PMS_P1;PMS_P2;Temp;Humidity;BMP_temperature;BMP_pressure;BME280_temperature;BME280_humidity;BME280_pressure;Samples;Min_cycle;Max_cycle;Signal;HPM_P1;HPM_P2
2023/08/12 00:01:21;;;;;;;4.80;3.63;;;;;;;22.73;63.29;100768.84;4123510;28;20051;-62
2023/08/12 00:03:24;;;;;;;5.85;3.83;;;;;;;22.70;63.16;100761.00;4128168;28;20038;-62
2023/08/12 00:05:27;;;;;;;8.32;3.92;;;;;;;22.70;63.03;100760.13;4111764;28;20050;-62
2023/08/12 00:07:29;;;;;;;6.43;3.60;;;;;;;22.70;63.23;100763.66;4128596;28;20034;-62
2023/08/12 00:09:32;;;;;;;5.72;3.78;;;;;;;22.67;63.09;100756.66;4113193;28;20501;-63
2023/08/12 00:11:35;;;;;;;6.23;3.80;;;;;;;22.67;63.15;100756.66;4129431;28;20073;-63
2023/08/12 00:13:40;;;;;;;6.10;4.05;;;;;;;22.69;63.36;100748.66;4097573;29;20051;-63
2023/08/12 00:15:42;;;;;;;5.20;3.92;;;;;;;22.69;63.57;100761.03;4129142;28;20037;-63
2023/08/12 00:17:46;;;;;;;7.60;4.15;;;;;;;22.69;63.67;100753.09;4112603;28;20129;-63
2023/08/12 00:19:48;;;;;;;7.70;3.75;;;;;;;22.69;63.71;100747.78;4130676;28;20129;-63
2023/08/12 00:21:52;;;;;;;7.53;3.55;;;;;;;22.66;63.62;100739.03;4113525;28;20038;-63
2023/08/12 00:23:55;;;;;;;5.10;3.67;;;;;;;22.63;64.16;100730.31;4130854;28;20501;-63
2023/08/12 00:25:58;;;;;;;7.95;4.05;;;;;;;22.61;64.71;100730.34;4127491;28;20121;-63
2023/08/12 00:28:01;;;;;;;7.07;3.90;;;;;;;22.57;65.11;100723.41;4127855;28;20039;-63
2023/08/12 00:30:08;;;;;;;8.82;3.63;;;;;;;22.54;65.32;100715.56;4128835;28;20046;-63
2023/08/12 00:32:11;;;;;;;5.70;3.42;;;;;;;22.52;65.41;100713.91;4128883;28;20038;-63
2023/08/12 00:34:15;;;;;;;4.38;3.35;;;;;;;22.46;65.07;100715.81;4111522;28;20066;-63
2023/08/12 00:36:18;;;;;;;6.63;4.30;;;;;;;22.45;64.88;100703.47;4097265;29;20043;-63
2023/08/12 00:38:21;;;;;;;6.25;3.78;;;;;;;22.44;64.75;100706.16;4097137;28;20092;-63
2023/08/12 00:40:25;;;;;;;7.10;3.92;;;;;;;22.46;64.81;100699.06;4110122;28;20047;-63
2023/08/12 00:42:28;;;;;;;5.03;3.63;;;;;;;22.45;64.61;100699.97;4113395;28;20062;-63
2023/08/12 00:44:31;;;;;;;5.65;3.45;;;;;;;22.47;64.73;100700.78;4112967;28;20309;-63
2023/08/12 00:46:36;;;;;;;9.82;3.80;;;;;;;22.48;64.58;100702.50;4112441;28;20046;-63
2023/08/12 00:48:40;;;;;;;8.18;4.45;;;;;;;22.47;64.70;100700.78;4129625;28;20093;-63
2023/08/12 00:50:43;;;;;;;6.82;4.05;;;;;;;22.48;64.47;100702.50;4113647;28;20199;-63
2023/08/12 00:52:46;;;;;;;5.80;3.95;;;;;;;22.48;64.85;100703.38;4129315;28;20049;-63
2023/08/12 00:54:49;;;;;;;5.88;4.20;;;;;;;22.48;64.92;100703.38;4111783;28;20575;-63
2023/08/12 00:56:53;;;;;;;6.85;3.58;;;;;;;22.49;64.95;100693.66;4096005;28;20573;-63
2023/08/12 00:58:56;;;;;;;7.47;3.85;;;;;;;22.49;65.12;100699.81;4110183;28;20034;-63
2023/08/12 01:00:59;;;;;;;5.63;4.10;;;;;;;22.48;65.21;100695.41;4111877;28;20046;-63
2023/08/12 01:03:03;;;;;;;11.32;4.78;;;;;;;22.49;65.16;100698.97;4112911;28;20567;-63
2023/08/12 01:05:07;;;;;;;;;;;;;;;22.40;65.76;100696.56;4113216;28;20042;-63
2023/08/12 01:07:29;;;;;;;6.38;3.90;;;;;;;22.38;66.15;100701.91;4127488;28;20311;-62
2023/08/12 01:09:32;;;;;;;5.38;4.03;;;;;;;22.42;66.51;100700.91;4109987;28;20656;-62
2023/08/12 01:11:40;;;;;;;9.40;5.10;;;;;;;22.44;66.82;100698.22;4113309;28;20031;-62
2023/08/12 01:13:50;;;;;;;8.02;4.10;;;;;;;22.44;66.66;100706.16;4112901;28;20473;-63
2023/08/12 01:15:56;;;;;;;5.35;3.95;;;;;;;22.42;66.72;100703.56;4112717;28;20042;-62
2023/08/12 01:18:01;;;;;;;5.88;3.95;;;;;;;22.42;66.92;100702.72;4128677;28;20073;-63
2023/08/12 01:20:09;;;;;;;5.30;3.50;;;;;;;22.43;66.59;100704.44;4125691;28;20077;-62
2023/08/12 01:22:13;;;;;;;8.23;4.30;;;;;;;22.41;66.82;100700.97;4108964;28;20051;-62
2023/08/12 01:24:17;;;;;;;7.32;4.22;;;;;;;22.41;66.82;100712.41;4120845;28;20050;-62
2023/08/12 01:26:20;;;;;;;7.55;4.18;;;;;;;22.40;67.01;100705.41;4128594;28;20070;-63
2023/08/12 01:28:23;;;;;;;5.97;3.70;;;;;;;22.41;67.05;100708.91;4097333;28;20070;-62
2023/08/12 01:30:26;;;;;;;7.78;4.13;;;;;;;22.40;67.01;100715.13;4109154;28;20133;-62
2023/08/12 01:32:35;;;;;;;6.72;3.80;;;;;;;22.41;67.03;100712.41;4109127;28;20046;-63
2023/08/12 01:34:44;;;;;;;6.15;3.78;;;;;;;22.41;67.11;100719.50;4124368;28;20038;-62
2023/08/12 01:36:58;;;;;;;8.57;4.25;;;;;;;22.37;67.45;100713.47;4128980;28;20118;-63
2023/08/12 01:39:02;;;;;;;10.20;4.18;;;;;;;22.36;67.66;100716.16;4094973;28;20066;-63
2023/08/12 01:41:10;;;;;;;9.75;4.18;;;;;;;22.37;67.60;100709.91;4125566;28;20507;-63
2023/08/12 01:43:13;;;;;;;10.75;3.60;;;;;;;22.35;67.84;100709.97;4106987;28;20043;-63
2023/08/12 01:45:18;;;;;;;;;;;;;;;22.25;67.99;100706.72;4112003;28;20047;-63
2023/08/12 01:47:22;;;;;;;8.38;4.10;;;;;;;22.27;68.03;100696.94;4128212;28;19928;-63
2023/08/12 01:49:25;;;;;;;5.35;4.10;;;;;;;22.30;67.96;100709.22;4111205;28;20050;-62
2023/08/12 01:51:30;;;;;;;6.97;3.50;;;;;;;22.31;67.81;100713.59;4110017;28;20038;-63
2023/08/12 01:53:33;;;;;;;7.15;3.78;;;;;;;22.30;67.85;100710.09;4110015;28;20046;-63
2023/08/12 01:55:35;;;;;;;4.80;3.53;;;;;;;22.28;67.79;100714.56;4111450;28;20047;-63
2023/08/12 01:57:40;;;;;;;7.72;4.40;;;;;;;22.27;67.68;100709.31;4109508;28;20089;-63
2023/08/12 01:59:43;;;;;;;5.75;3.97;;;;;;;22.30;67.36;100707.44;4106271;28;20371;-62
2023/08/12 02:01:46;;;;;;;6.28;3.80;;;;;;;22.33;67.38;100709.16;4128724;28;20069;-62
2023/08/12 02:03:49;;;;;;;4.60;3.40;;;;;;;22.34;67.48;100702.06;4110785;28;20035;-62
2023/08/12 02:05:52;;;;;;;5.78;3.15;;;;;;;22.35;67.44;100711.75;4113137;28;20039;-63
2023/08/12 02:07:55;;;;;;;7.32;4.22;;;;;;;22.35;67.69;100709.13;4111216;28;20408;-63
2023/08/12 02:09:58;;;;;;;6.70;3.88;;;;;;;22.37;67.38;100709.91;4129149;28;20096;-62
2023/08/12 02:12:01;;;;;;;6.22;3.38;;;;;;;22.36;67.54;100709.06;4096520;29;20047;-63
2023/08/12 02:14:05;;;;;;;6.97;4.32;;;;;;;22.36;67.60;100697.63;4110838;28;20117;-62
2023/08/12 02:16:08;;;;;;;8.73;4.65;;;;;;;22.38;67.46;100701.06;4095265;28;20050;-62
2023/08/12 02:18:11;;;;;;;6.78;3.75;;;;;;;22.36;67.34;100694.97;4109807;28;20043;-62
2023/08/12 02:20:14;;;;;;;8.13;4.30;;;;;;;22.35;67.61;100699.38;4108752;28;20035;-63
2023/08/12 02:22:17;;;;;;;7.05;3.63;;;;;;;22.36;67.21;100703.75;4111899;28;20524;-62
2023/08/12 02:24:22;;;;;;;5.30;3.70;;;;;;;22.39;66.96;100698.38;4106308;28;20400;-62
2023/08/12 02:26:25;;;;;;;5.60;3.58;;;;;;;22.37;67.09;100696.69;4114572;28;20122;-63
2023/08/12 02:28:28;;;;;;;9.02;3.70;;;;;;;22.40;66.92;100696.56;4097755;23;20052;-61
2023/08/12 02:30:33;;;;;;;7.03;4.97;;;;;;;22.37;66.71;100694.03;4112227;28;20026;-61
2023/08/12 02:32:36;;;;;;;7.75;4.22;;;;;;;22.39;66.71;100692.22;4105820;28;20081;-60
2023/08/12 02:34:39;;;;;;;7.15;4.15;;;;;;;22.37;66.80;100697.56;4081424;29;20048;-61
2023/08/12 02:36:45;;;;;;;6.38;3.67;;;;;;;22.35;67.01;100695.88;4091467;29;20039;-61
2023/08/12 02:38:48;;;;;;;9.15;3.50;;;;;;;22.35;67.08;100701.16;4097501;28;20081;-61
2023/08/12 02:40:52;;;;;;;4.25;3.08;;;;;;;22.34;67.01;100699.41;4094892;29;20043;-61
2023/08/12 02:42:55;;;;;;;6.45;3.97;;;;;;;22.36;66.70;100702.91;4091915;29;20046;-60
2023/08/12 02:44:59;;;;;;;7.65;3.40;;;;;;;22.34;66.83;100705.59;4098826;29;20050;-61
2023/08/12 02:47:03;;;;;;;;;;;;;;;22.22;67.14;100716.53;4114824;28;20053;-61
2023/08/12 02:49:06;;;;;;;3.92;3.03;;;;;;;22.23;66.88;100739.47;4116572;28;19928;-61
2023/08/12 02:51:09;;;;;;;5.50;3.35;;;;;;;22.18;66.46;100733.41;4113434;28;20035;-61
2023/08/12 02:53:12;;;;;;;7.10;3.63;;;;;;;22.19;66.76;100727.22;4099029;29;20038;-61
2023/08/12 02:55:15;;;;;;;7.50;3.58;;;;;;;22.22;66.30;100727.97;4098573;29;20106;-60
2023/08/12 02:57:18;;;;;;;5.57;3.35;;;;;;;22.26;66.42;100721.69;4097971;29;20035;-61
2023/08/12 02:59:21;;;;;;;5.35;3.42;;;;;;;22.32;66.19;100731.25;4109814;28;20038;-61
2023/08/12 03:01:25;;;;;;;4.53;3.50;;;;;;;22.34;65.76;100726.78;4094850;28;20050;-61
2023/08/12 03:03:29;;;;;;;6.25;3.67;;;;;;;22.36;65.78;100724.97;4098435;29;20047;-61
2023/08/12 03:05:33;;;;;;;;;;;;;;;22.33;65.73;100729.47;4108409;28;20039;-61
2023/08/12 03:07:35;;;;;;;5.28;3.00;;;;;;;22.36;65.66;100726.75;4097411;28;20008;-61
2023/08/12 03:09:38;;;;;;;5.95;3.58;;;;;;;22.40;65.54;100721.31;4092877;29;20039;-61
2023/08/12 03:11:42;;;;;;;8.20;4.05;;;;;;;22.45;65.23;100726.44;4093072;29;20094;-61
2023/08/12 03:13:46;;;;;;;6.10;3.78;;;;;;;22.45;65.26;100732.59;4098725;29;20596;-61
2023/08/12 03:15:49;;;;;;;7.90;3.30;;;;;;;22.46;65.30;100731.69;4098103;29;20118;-61
2023/08/12 03:17:52;;;;;;;8.80;3.72;;;;;;;22.45;65.40;100727.31;4097015;29;20513;-61
2023/08/12 03:19:59;;;;;;;5.40;3.63;;;;;;;22.43;65.62;100734.44;4098587;29;20039;-61
2023/08/12 03:22:03;;;;;;;4.85;3.08;;;;;;;22.43;65.68;100728.28;4108546;28;20047;-61
2023/08/12 03:24:06;;;;;;;4.47;3.40;;;;;;;22.43;66.17;100723.00;4094513;29;20520;-60
2023/08/12 03:26:09;;;;;;;5.97;2.83;;;;;;;22.40;66.25;100716.00;4080901;29;20236;-61
2023/08/12 03:28:19;;;;;;;6.07;3.70;;;;;;;22.36;66.36;100726.75;4107914;28;20039;-61
2023/08/12 03:30:22;;;;;;;7.53;3.10;;;;;;;22.33;66.43;100722.41;4107033;28;20034;-60
2023/08/12 03:32:25;;;;;;;5.45;3.78;;;;;;;22.33;66.49;100727.69;4111332;28;20039;-60
2023/08/12 03:34:29;;;;;;;6.82;3.75;;;;;;;22.35;66.64;100723.22;4113407;28;20039;-61
2023/08/12 03:36:33;;;;;;;10.57;4.43;;;;;;;22.39;66.87;100724.00;4094648;28;20505;-61
2023/08/12 03:38:38;;;;;;;5.80;3.90;;;;;;;22.30;66.85;100719.81;4093461;29;20105;-61
2023/08/12 03:40:42;;;;;;;6.07;3.63;;;;;;;22.30;67.10;100715.38;4095139;29;20429;-60
2023/08/12 03:42:48;;;;;;;8.63;4.38;;;;;;;22.38;67.16;100701.91;4097297;29;20147;-61
2023/08/12 03:44:52;;;;;;;6.32;4.22;;;;;;;22.34;67.00;100700.31;4097871;28;20031;-61
2023/08/12 03:46:55;;;;;;;9.18;4.00;;;;;;;22.28;67.13;100695.13;4097892;29;20039;-61
2023/08/12 03:48:59;;;;;;;7.90;4.78;;;;;;;22.29;66.70;100692.44;4094517;29;20126;-61
2023/08/12 03:51:02;;;;;;;9.00;4.30;;;;;;;22.28;66.54;100689.84;4092323;29;20485;-61
2023/08/12 03:53:08;;;;;;;9.15;4.75;;;;;;;22.26;66.58;100687.25;4097383;29;20122;-61
2023/08/12 03:55:13;;;;;;;7.18;3.67;;;;;;;22.26;66.78;100689.91;4098164;28;20122;-60
2023/08/12 03:57:16;;;;;;;6.53;4.63;;;;;;;22.23;67.03;100692.63;4089741;29;20789;-61
2023/08/12 03:59:19;;;;;;;4.50;3.45;;;;;;;22.18;67.09;100702.53;4094926;29;20039;-61
2023/08/12 04:01:22;;;;;;;9.05;3.92;;;;;;;22.21;67.04;100699.78;4089754;29;20039;-61
2023/08/12 04:03:25;;;;;;;5.50;3.53;;;;;;;22.23;67.05;100699.72;4097340;29;20039;-61
2023/08/12 04:05:28;;;;;;;9.60;4.40;;;;;;;22.25;66.83;100701.44;4097632;28;20083;-61
2023/08/12 04:07:32;;;;;;;6.90;3.97;;;;;;;22.27;66.74;100704.88;4097525;28;20039;-61
2023/08/12 04:09:38;;;;;;;7.88;4.43;;;;;;;22.23;67.15;100711.19;4095037;29;20604;-61
2023/08/12 04:11:41;;;;;;;5.88;3.75;;;;;;;22.25;67.27;100712.03;4111424;28;20828;-61
2023/08/12 04:13:44;;;;;;;5.70;3.55;;;;;;;22.28;67.08;100703.97;4107928;28;20448;-61
2023/08/12 04:15:50;;;;;;;8.00;4.65;;;;;;;22.27;67.20;100704.88;4094609;28;20268;-61
2023/08/12 04:17:53;;;;;;;7.85;4.20;;;;;;;22.29;66.87;100702.19;4107088;28;20035;-61
2023/08/12 04:19:56;;;;;;;7.05;4.82;;;;;;;22.30;66.96;100702.13;4094893;29;20048;-61
2023/08/12 04:21:58;;;;;;;8.20;4.72;;;;;;;22.36;66.65;100702.91;4097792;28;20055;-61
2023/08/12 04:24:02;;;;;;;9.95;5.43;;;;;;;22.38;66.63;100693.97;4097582;29;20461;-61
2023/08/12 04:26:06;;;;;;;9.20;4.78;;;;;;;22.40;66.54;100704.53;4094149;29;20104;-60
2023/08/12 04:28:10;;;;;;;6.75;4.50;;;;;;;22.36;66.92;100705.56;4097512;28;20081;-60
2023/08/12 04:30:13;;;;;;;7.47;5.10;;;;;;;22.44;66.51;100700.88;4092382;28;20051;-61
2023/08/12 04:32:16;;;;;;;9.00;4.50;;;;;;;22.46;66.41;100707.88;4090556;29;20067;-61
2023/08/12 04:34:20;;;;;;;8.77;4.77;;;;;;;22.48;66.44;100702.50;4093162;29;20401;-60
2023/08/12 04:36:24;;;;;;;12.38;5.57;;;;;;;22.51;66.38;100701.56;4096464;28;20442;-60
2023/08/12 04:38:27;;;;;;;8.13;4.40;;;;;;;22.53;66.18;100705.91;4094179;29;20043;-60
2023/08/12 04:40:33;;;;;;;8.20;4.00;;;;;;;22.55;66.15;100703.19;4094654;29;20081;-60
2023/08/12 04:42:37;;;;;;;13.40;4.38;;;;;;;22.58;66.48;100706.59;4094946;29;20039;-60
2023/08/12 04:44:41;;;;;;;6.85;4.05;;;;;;;22.59;66.25;100699.50;4097757;29;20043;-61
2023/08/12 04:46:43;;;;;;;8.05;4.72;;;;;;;22.58;66.18;100703.94;4092929;28;20165;-60
2023/08/12 04:48:46;;;;;;;4.80;3.35;;;;;;;22.58;66.13;100696.00;4111335;28;20495;-60
2023/08/12 04:50:49;;;;;;;4.63;3.53;;;;;;;22.56;66.32;100696.97;4097666;28;20042;-61
2023/08/12 04:52:53;;;;;;;5.60;3.70;;;;;;;22.56;66.65;100700.50;4089916;29;20065;-61
2023/08/12 04:54:57;;;;;;;5.93;3.90;;;;;;;22.57;66.81;100701.34;4109844;28;20803;-60
2023/08/12 04:57:01;;;;;;;4.70;3.40;;;;;;;22.55;66.75;100693.47;4095568;29;20040;-61
2023/08/12 04:59:08;;;;;;;6.53;4.10;;;;;;;22.53;66.94;100684.69;4097122;29;20409;-60
2023/08/12 05:01:11;;;;;;;7.43;4.22;;;;;;;22.51;67.26;100693.59;4113416;28;20031;-61
2023/08/12 05:03:14;;;;;;;11.50;4.35;;;;;;;22.49;67.76;100691.00;4096675;29;20056;-61
2023/08/12 05:05:17;;;;;;;9.02;4.18;;;;;;;22.47;67.86;100690.16;4089145;29;20102;-61
2023/08/12 05:07:20;;;;;;;6.45;4.13;;;;;;;22.45;67.78;100684.91;4077571;29;20134;-60
2023/08/12 05:09:23;;;;;;;4.75;3.47;;;;;;;22.42;67.89;100684.16;4097797;28;20039;-61
2023/08/12 05:11:26;;;;;;;7.10;3.72;;;;;;;22.40;68.03;100678.91;4097146;28;20442;-61
2023/08/12 05:13:29;;;;;;;8.40;3.85;;;;;;;22.43;67.97;100685.91;4094869;28;20066;-61
2023/08/12 05:15:36;;;;;;;5.97;3.63;;;;;;;22.39;68.21;100681.63;4092902;29;20036;-60
2023/08/12 05:17:38;;;;;;;7.13;4.00;;;;;;;22.40;67.91;100685.97;4094372;29;20377;-60
2023/08/12 05:19:44;;;;;;;;;;;;;;;22.37;68.02;100675.47;4087169;29;20083;-61
2023/08/12 05:21:47;;;;;;;7.25;4.20;;;;;;;22.43;68.25;100670.88;4114320;28;20396;-61
2023/08/12 05:23:49;;;;;;;6.70;4.30;;;;;;;22.49;68.38;100669.81;4110368;28;20121;-60
2023/08/12 05:25:52;;;;;;;6.68;3.92;;;;;;;22.51;68.62;100667.09;4096926;29;20475;-60
2023/08/12 05:27:57;;;;;;;8.55;4.15;;;;;;;22.51;68.85;100675.91;4108473;28;20390;-60
2023/08/12 05:30:00;;;;;;;8.88;4.05;;;;;;;22.49;69.27;100677.75;4111251;28;20071;-61
2023/08/12 05:32:05;;;;;;;6.93;3.70;;;;;;;22.48;69.83;100689.25;4096069;29;20074;-60
2023/08/12 05:34:08;;;;;;;10.73;4.55;;;;;;;22.45;70.19;100674.31;4110001;28;20035;-60
2023/08/12 05:36:11;;;;;;;10.45;3.97;;;;;;;22.45;70.49;100682.28;4110477;28;20058;-60
2023/08/12 05:38:14;;;;;;;6.95;4.10;;;;;;;22.44;70.61;100684.97;4089978;28;20082;-61
2023/08/12 05:40:17;;;;;;;10.65;4.05;;;;;;;22.41;70.86;100682.41;4091925;28;20091;-60
2023/08/12 05:42:20;;;;;;;6.80;4.70;;;;;;;22.40;70.81;100680.69;4110771;28;20485;-60
2023/08/12 05:44:23;;;;;;;7.70;4.30;;;;;;;22.38;70.66;100675.44;4098390;29;20588;-60
2023/08/12 05:46:26;;;;;;;7.43;4.18;;;;;;;22.39;70.53;100678.97;4111272;28;20129;-60
2023/08/12 05:48:30;;;;;;;8.82;4.32;;;;;;;22.35;70.76;100675.53;4080665;29;20035;-61
2023/08/12 05:50:32;;;;;;;6.70;3.35;;;;;;;22.33;70.72;100671.19;4076199;29;20130;-61
2023/08/12 05:52:35;;;;;;;8.95;4.57;;;;;;;22.34;70.62;100668.53;4099586;28;20078;-61
2023/08/12 05:54:37;;;;;;;8.48;4.35;;;;;;;22.36;70.33;100671.97;4112428;28;20137;-61
2023/08/12 05:56:40;;;;;;;6.05;4.72;;;;;;;22.35;70.54;100670.22;4109112;28;20035;-61
2023/08/12 05:58:43;;;;;;;8.57;4.65;;;;;;;22.37;70.26;100676.38;4096153;28;20043;-61
2023/08/12 06:00:46;;;;;;;8.38;3.97;;;;;;;22.41;70.62;100670.03;4115335;28;20038;-61
2023/08/12 06:02:49;;;;;;;7.32;4.05;;;;;;;22.45;70.66;100679.63;4114559;28;20046;-61
2023/08/12 06:04:56;;;;;;;7.95;4.63;;;;;;;22.50;70.36;100684.78;4093531;29;20067;-61
2023/08/12 06:06:58;;;;;;;4.90;3.65;;;;;;;22.52;70.19;100682.97;4114721;28;20050;-61
2023/08/12 06:09:01;;;;;;;6.22;3.85;;;;;;;22.57;70.10;100681.00;4098423;29;20525;-61
2023/08/12 06:11:04;;;;;;;6.45;4.88;;;;;;;22.60;69.66;100680.91;4098121;29;20077;-61
2023/08/12 06:13:06;;;;;;;6.95;3.85;;;;;;;22.61;69.78;100679.16;4098310;29;20049;-61
2023/08/12 06:15:10;;;;;;;5.78;4.05;;;;;;;22.71;69.60;100685.03;4100663;28;20043;-61
2023/08/12 06:17:13;;;;;;;7.15;4.53;;;;;;;22.79;69.43;100680.31;4097563;29;20086;-61
2023/08/12 06:19:16;;;;;;;6.72;4.38;;;;;;;22.93;68.76;100678.06;4099480;29;20058;-61
2023/08/12 06:21:20;;;;;;;9.93;4.90;;;;;;;23.07;68.33;100685.56;4117077;28;20042;-61
2023/08/12 06:23:23;;;;;;;9.40;6.28;;;;;;;23.13;68.09;100695.13;4088714;29;20043;-61
2023/08/12 06:25:29;;;;;;;8.55;5.00;;;;;;;23.15;67.99;100688.00;4111132;28;20051;-61
2023/08/12 06:27:32;;;;;;;12.45;5.60;;;;;;;23.18;67.96;100691.38;4106272;28;20062;-61
2023/08/12 06:29:48;;;;;;;10.98;5.05;;;;;;;23.28;67.60;100691.09;4107895;28;20501;-61
2023/08/12 06:31:52;;;;;;;8.88;5.50;;;;;;;23.30;67.53;100682.13;4111706;28;20393;-61
2023/08/12 06:33:55;;;;;;;12.77;5.75;;;;;;;23.35;67.22;100685.50;4093910;29;20087;-61
2023/08/12 06:35:58;;;;;;;8.30;4.55;;;;;;;23.47;66.86;100704.56;4106361;28;20070;-61
2023/08/12 06:38:02;;;;;;;13.27;5.07;;;;;;;23.55;66.67;100691.88;4095710;29;20047;-61
2023/08/12 06:40:06;;;;;;;9.65;5.03;;;;;;;23.55;66.70;100691.88;4106876;28;20098;-61
2023/08/12 06:42:09;;;;;;;;;;;;;;;23.50;66.91;100688.53;4106078;28;20042;-61
2023/08/12 06:44:13;;;;;;;7.60;4.63;;;;;;;23.49;67.24;100686.78;4106005;28;19949;-72
2023/08/12 06:46:15;;;;;;;9.40;4.47;;;;;;;23.49;67.12;100677.03;4109564;28;20042;-63
2023/08/12 06:48:18;;;;;;;13.32;4.93;;;;;;;23.53;67.08;100672.50;4111989;28;20086;-65
2023/08/12 06:50:21;;;;;;;8.07;4.97;;;;;;;23.53;66.19;100683.97;4092747;29;20031;-70
2023/08/12 06:52:24;;;;;;;8.60;4.78;;;;;;;23.54;66.48;100682.19;4108669;28;20038;-70
2023/08/12 06:54:28;;;;;;;12.85;4.88;;;;;;;23.56;66.72;100674.19;4109352;28;20073;-70
2023/08/12 06:56:31;;;;;;;11.32;4.53;;;;;;;23.59;66.60;100687.34;4113055;28;20039;-70
2023/08/12 06:58:34;;;;;;;8.15;4.68;;;;;;;23.61;66.93;100686.38;4114941;28;20035;-68
2023/08/12 07:00:37;;;;;;;10.05;4.38;;;;;;;23.61;66.98;100696.97;4109539;28;20039;-67
2023/08/12 07:02:42;;;;;;;10.15;4.20;;;;;;;23.63;67.34;100689.81;4112554;28;20035;-63
2023/08/12 07:04:45;;;;;;;8.90;4.88;;;;;;;23.62;67.10;100703.16;4097908;29;20532;-68
2023/08/12 07:06:48;;;;;;;8.23;4.80;;;;;;;23.62;67.26;100705.78;4108239;28;20038;-65
2023/08/12 07:08:51;;;;;;;6.80;4.18;;;;;;;23.57;67.89;100711.28;4112220;28;20634;-63
2023/08/12 07:10:55;;;;;;;9.27;4.50;;;;;;;23.54;67.37;100711.38;4094962;28;20039;-66
2023/08/12 07:12:58;;;;;;;9.23;4.65;;;;;;;23.53;67.20;100713.16;4116595;28;20045;-62
2023/08/12 07:15:00;;;;;;;9.15;4.20;;;;;;;23.53;66.82;100704.34;4101387;28;20043;-61
2023/08/12 07:17:03;;;;;;;9.40;4.10;;;;;;;23.57;67.28;100711.28;4115122;28;20493;-62
2023/08/12 07:19:06;;;;;;;7.25;3.90;;;;;;;23.57;67.71;100698.00;4117627;28;20066;-66
2023/08/12 07:21:09;;;;;;;6.47;4.30;;;;;;;23.59;67.97;100697.94;4114728;28;20492;-62
2023/08/12 07:23:11;;;;;;;8.23;4.40;;;;;;;23.61;68.40;100699.63;4117528;28;20042;-63
2023/08/12 07:25:14;;;;;;;10.82;4.47;;;;;;;23.65;68.81;100701.22;4080887;29;20137;-63
2023/08/12 07:27:18;;;;;;;8.65;4.75;;;;;;;23.68;68.98;100708.22;4099392;29;20047;-63
2023/08/12 07:29:22;;;;;;;8.05;4.93;;;;;;;23.75;69.04;100706.22;4092073;29;20048;-62
2023/08/12 07:31:24;;;;;;;9.38;4.15;;;;;;;23.83;68.77;100696.16;4099655;28;20039;-62
2023/08/12 07:33:27;;;;;;;8.38;4.40;;;;;;;23.83;68.61;100688.19;4084351;29;20489;-62
2023/08/12 07:35:30;;;;;;;7.40;4.72;;;;;;;23.87;68.87;100684.53;4116728;28;20043;-63
2023/08/12 07:37:33;;;;;;;8.02;4.70;;;;;;;24.02;68.86;100683.97;4114794;28;20066;-62
2023/08/12 07:39:36;;;;;;;10.13;4.75;;;;;;;24.11;68.14;100685.41;4110444;28;20034;-62
2023/08/12 07:41:39;;;;;;;8.60;4.55;;;;;;;24.09;67.68;100679.28;4116562;28;20098;-61
2023/08/12 07:43:43;;;;;;;7.68;4.93;;;;;;;24.07;67.22;100688.25;4120172;28;20397;-64
2023/08/12 07:45:51;;;;;;;6.97;4.07;;;;;;;24.11;67.64;100688.06;4112818;28;20463;-63
2023/08/12 07:48:12;;;;;;;6.70;4.85;;;;;;;24.25;67.12;100684.00;4112032;28;20046;-63
2023/08/12 07:50:16;;;;;;;7.95;5.40;;;;;;;24.30;66.61;100687.31;4099551;28;20098;-62
2023/08/12 07:52:19;;;;;;;8.15;4.85;;;;;;;24.33;66.51;100688.09;4120870;28;20042;-61
2023/08/12 07:54:22;;;;;;;7.55;5.15;;;;;;;24.39;65.79;100685.19;4106713;28;20487;-62
2023/08/12 07:56:25;;;;;;;8.88;4.57;;;;;;;24.35;65.86;100682.72;4111495;28;20042;-62
2023/08/12 07:58:28;;;;;;;9.23;5.55;;;;;;;24.30;65.49;100680.25;4114028;28;20137;-61
2023/08/12 08:00:33;;;;;;;7.32;5.10;;;;;;;24.34;65.92;100684.50;4095406;28;20063;-62
2023/08/12 08:02:36;;;;;;;7.78;4.40;;;;;;;24.44;66.05;100684.13;4085723;29;20138;-61
2023/08/12 08:04:39;;;;;;;7.22;5.28;;;;;;;24.60;65.27;100684.41;4115335;28;20098;-61
2023/08/12 08:06:42;;;;;;;8.13;5.53;;;;;;;24.73;64.47;100677.66;4116531;28;20504;-61
2023/08/12 08:08:47;;;;;;;8.68;4.90;;;;;;;24.80;63.98;100675.63;4114635;28;20038;-62
2023/08/12 08:10:50;;;;;;;5.95;4.20;;;;;;;24.77;64.64;100686.41;4111504;28;20121;-62
2023/08/12 08:12:53;;;;;;;6.85;4.93;;;;;;;24.65;64.26;100696.59;4116561;28;20126;-62
2023/08/12 08:14:56;;;;;;;7.35;4.60;;;;;;;24.81;63.59;100690.63;4114592;28;20051;-62
2023/08/12 08:17:00;;;;;;;5.93;4.18;;;;;;;24.97;63.63;100686.41;4107629;28;20150;-62
2023/08/12 08:19:04;;;;;;;8.73;4.50;;;;;;;25.13;63.61;100691.97;4083796;29;20087;-61
2023/08/12 08:21:07;;;;;;;5.28;3.85;;;;;;;25.15;63.49;100699.88;4098707;28;20576;-61
2023/08/12 08:23:10;;;;;;;7.18;4.50;;;;;;;25.18;63.39;100691.75;4109060;28;20043;-62
2023/08/12 08:25:14;;;;;;;6.38;4.43;;;;;;;25.23;63.22;100695.06;4083689;29;20054;-62
2023/08/12 08:27:17;;;;;;;8.70;4.45;;;;;;;25.25;62.67;100693.22;4100076;28;20047;-62
2023/08/12 08:29:19;;;;;;;7.00;4.32;;;;;;;25.34;62.63;100690.19;4129759;23;20450;-62
2023/08/12 08:31:22;;;;;;;8.25;4.32;;;;;;;25.32;62.33;100694.72;4116767;28;20560;-62
2023/08/12 08:33:27;;;;;;;6.38;4.50;;;;;;;25.27;62.07;100691.34;4099567;29;20035;-62
2023/08/12 08:35:30;;;;;;;5.78;4.30;;;;;;;25.31;62.40;100690.31;4099518;29;20390;-62
2023/08/12 08:37:32;;;;;;;5.75;4.00;;;;;;;25.30;61.74;100687.69;4114599;28;20043;-62
2023/08/12 08:39:35;;;;;;;6.53;4.10;;;;;;;25.37;61.55;100692.69;4109936;28;20123;-61
2023/08/12 08:41:39;;;;;;;8.27;4.95;;;;;;;25.50;60.60;100694.84;4098074;29;20397;-62
2023/08/12 08:43:44;;;;;;;8.02;3.97;;;;;;;25.55;59.80;100708.78;4100585;29;20126;-62
2023/08/12 08:45:48;;;;;;;5.97;4.13;;;;;;;25.55;60.33;100695.47;4099350;29;20073;-62
2023/08/12 08:47:52;;;;;;;5.75;3.83;;;;;;;25.47;60.84;100694.97;4099915;29;20035;-62
2023/08/12 08:49:58;;;;;;;8.73;4.30;;;;;;;25.56;61.01;100694.56;4097317;29;20150;-62
2023/08/12 08:52:01;;;;;;;6.55;4.07;;;;;;;25.78;60.99;100684.66;4096499;28;20138;-62
2023/08/12 08:54:05;;;;;;;8.63;4.03;;;;;;;25.96;60.43;100696.28;4075117;29;20043;-62
2023/08/12 08:56:11;;;;;;;7.22;4.30;;;;;;;26.10;60.36;100694.78;4072872;29;20135;-62
2023/08/12 08:58:16;;;;;;;11.15;5.68;;;;;;;26.17;58.59;100690.03;4093589;29;20051;-62
2023/08/12 09:00:25;;;;;;;8.40;5.35;;;;;;;26.09;58.58;100677.97;4077282;29;20048;-62
2023/08/12 09:02:27;;;;;;;8.87;4.73;;;;;;;26.15;58.56;100674.09;4079006;29;20601;-62
2023/08/12 09:04:31;;;;;;;7.28;4.40;;;;;;;26.21;59.03;100672.97;4096504;29;20298;-62
2023/08/12 09:06:37;;;;;;;14.05;5.10;;;;;;;26.11;59.39;100676.06;4080005;29;20046;-62
2023/08/12 09:08:52;;;;;;;9.40;4.22;;;;;;;25.99;58.79;100668.59;4096747;29;20039;-62
2023/08/12 09:10:57;;;;;;;6.75;4.35;;;;;;;25.96;58.98;100660.75;4080505;29;20039;-62
2023/08/12 09:13:01;;;;;;;6.28;4.20;;;;;;;25.79;60.04;100665.09;4093263;29;20063;-62
2023/08/12 09:15:06;;;;;;;9.95;4.18;;;;;;;25.72;61.29;100668.09;4098134;29;20051;-62
2023/08/12 09:17:10;;;;;;;7.45;4.40;;;;;;;25.98;62.02;100674.88;4098075;29;20494;-62
2023/08/12 09:19:13;;;;;;;5.93;3.75;;;;;;;26.29;60.60;100670.78;4096319;29;20106;-62
2023/08/12 09:21:16;;;;;;;6.38;4.32;;;;;;;26.21;60.76;100679.16;4081596;29;20040;-62
2023/08/12 09:23:20;;;;;;;6.60;3.78;;;;;;;26.09;60.54;100680.63;4093418;29;20046;-62
2023/08/12 09:25:23;;;;;;;;;;;;;;;26.04;59.69;100669.31;4096134;29;20073;-62
2023/08/12 09:27:25;;;;;;;6.85;3.25;;;;;;;25.89;60.40;100672.63;4062195;29;20405;-62
2023/08/12 09:29:31;;;;;;;5.95;3.92;;;;;;;25.90;59.87;100669.91;4097901;29;20039;-62
2023/08/12 09:31:34;;;;;;;8.32;4.10;;;;;;;25.89;60.14;100669.97;4081512;29;20043;-62
2023/08/12 09:33:40;;;;;;;5.63;3.72;;;;;;;25.96;61.13;100661.66;4096889;28;20036;-62
2023/08/12 09:35:44;;;;;;;6.97;5.13;;;;;;;26.03;60.40;100664.03;4098608;29;20039;-63
2023/08/12 09:37:47;;;;;;;9.68;4.93;;;;;;;26.03;59.35;100670.22;4074216;29;20257;-62